Time,TemperatureF,DewpointF,PressureIn,WindDirection,WindDirectionDegrees,WindSpeedMPH,WindSpeedGustMPH,Humidity,HourlyPrecipIn,Conditions,Clouds,dailyrainin,SoftwareType,DateUTC
2013-10-14 00:00:00,43.9,40.6,30.42,North,350,0.0,0.0,88,0.00,,,0.00,Wunderground v.1.15,2013-10-14 04:00:00,
2013-10-14 00:05:00,44.1,40.8,30.42,NNW,343,0.0,2.0,88,0.00,,,0.00,Wunderground v.1.15,2013-10-14 04:05:00,
2013-10-14 00:10:00,44.3,41.0,30.41,NNW,340,1.0,1.0,88,0.00,,,0.00,Wunderground v.1.15,2013-10-14 04:10:00,
2013-10-14 00:20:00,44.5,40.9,30.41,NNW,337,1.0,1.0,87,0.00,,,0.00,Wunderground v.1.15,2013-10-14 04:20:00,
2013-10-14 00:25:00,44.4,41.1,30.42,WNW,298,0.0,1.0,88,0.00,,,0.00,Wunderground v.1.15,2013-10-14 04:25:00,
2013-10-14 00:30:00,44.2,40.9,30.41,NNW,327,1.0,2.0,88,0.00,,,0.00,Wunderground v.1.15,2013-10-14 04:30:00,
2013-10-14 00:35:00,44.2,40.9,30.41,NW,320,1.0,2.0,88,0.00,,,0.00,Wunderground v.1.15,2013-10-14 04:35:00,
2013-10-14 00:40:00,44.2,41.2,30.41,NNW,337,1.0,1.0,89,0.00,,,0.00,Wunderground v.1.15,2013-10-14 04:40:00,
2013-10-14 00:45:00,44.3,41.3,30.41,NNW,344,1.0,1.0,89,0.00,,,0.00,Wunderground v.1.15,2013-10-14 04:45:00,
2013-10-14 00:50:00,44.3,41.3,30.41,NNW,339,1.0,1.0,89,0.00,,,0.00,Wunderground v.1.15,2013-10-14 04:50:00,
2013-10-14 00:55:00,44.2,41.2,30.41,North,349,2.0,2.0,89,0.00,,,0.00,Wunderground v.1.15,2013-10-14 04:55:00,
2013-10-14 01:00:00,44.3,41.3,30.41,NNW,327,2.0,3.0,89,0.00,,,0.00,Wunderground v.1.15,2013-10-14 05:00:00,
2013-10-14 01:10:00,44.5,41.5,30.41,NW,318,2.0,2.0,89,0.00,,,0.00,Wunderground v.1.15,2013-10-14 05:10:00,
2013-10-14 01:15:00,44.4,41.4,30.41,NW,321,2.0,2.0,89,0.00,,,0.00,Wunderground v.1.15,2013-10-14 05:15:00,
2013-10-14 01:25:00,44.6,41.8,30.41,NNW,335,3.0,3.0,90,0.00,,,0.00,Wunderground v.1.15,2013-10-14 05:25:00,
2013-10-14 01:30:00,44.6,41.8,30.41,North,10,3.0,3.0,90,0.00,,,0.00,Wunderground v.1.15,2013-10-14 05:30:00,
2013-10-14 01:35:00,44.7,41.9,30.41,WNW,300,3.0,3.0,90,0.00,,,0.00,Wunderground v.1.15,2013-10-14 05:35:00,
2013-10-14 01:40:00,44.7,41.9,30.41,NNW,327,3.0,3.0,90,0.00,,,0.00,Wunderground v.1.15,2013-10-14 05:40:00,
2013-10-14 01:45:00,44.8,42.0,30.41,North,4,3.0,4.0,90,0.00,,,0.00,Wunderground v.1.15,2013-10-14 05:45:00,
2013-10-14 01:55:00,45.1,42.3,30.41,NNW,337,4.0,6.0,90,0.00,,,0.00,Wunderground v.1.15,2013-10-14 05:55:00,
2013-10-14 02:00:00,45.2,42.4,30.42,North,5,4.0,4.0,90,0.00,,,0.00,Wunderground v.1.15,2013-10-14 06:00:00,
2013-10-14 02:10:00,45.0,42.2,30.42,NNW,335,3.0,4.0,90,0.00,,,0.00,Wunderground v.1.15,2013-10-14 06:10:00,
2013-10-14 02:15:00,45.1,42.3,30.42,NNW,338,3.0,5.0,90,0.00,,,0.00,Wunderground v.1.15,2013-10-14 06:15:00,
2013-10-14 02:20:00,45.2,42.2,30.42,NNE,15,4.0,7.0,89,0.00,,,0.00,Wunderground v.1.15,2013-10-14 06:20:00,
2013-10-14 02:30:00,45.3,42.2,30.42,North,359,4.0,5.0,89,0.00,,,0.00,Wunderground v.1.15,2013-10-14 06:30:00,
2013-10-14 02:35:00,45.3,42.2,30.42,NNW,340,5.0,5.0,89,0.00,,,0.00,Wunderground v.1.15,2013-10-14 06:35:00,
2013-10-14 02:40:00,45.2,42.2,30.42,NNE,23,4.0,5.0,89,0.00,,,0.00,Wunderground v.1.15,2013-10-14 06:40:00,
2013-10-14 02:45:00,45.1,42.1,30.42,NNE,15,4.0,5.0,89,0.00,,,0.00,Wunderground v.1.15,2013-10-14 06:45:00,
2013-10-14 02:50:00,45.1,42.3,30.42,NNE,16,4.0,6.0,90,0.00,,,0.00,Wunderground v.1.15,2013-10-14 06:50:00,
2013-10-14 03:00:00,45.1,42.1,30.42,NNE,23,4.0,6.0,89,0.00,,,0.00,Wunderground v.1.15,2013-10-14 07:00:00,
2013-10-14 03:10:00,44.9,42.1,30.42,NW,325,4.0,4.0,90,0.00,,,0.00,Wunderground v.1.15,2013-10-14 07:10:00,
2013-10-14 03:15:00,44.7,41.9,30.42,NW,308,3.0,4.0,90,0.00,,,0.00,Wunderground v.1.15,2013-10-14 07:15:00,
2013-10-14 03:20:00,44.7,41.9,30.42,NNE,23,3.0,3.0,90,0.00,,,0.00,Wunderground v.1.15,2013-10-14 07:20:00,
2013-10-14 03:25:00,44.8,42.0,30.42,NNE,30,3.0,6.0,90,0.00,,,0.00,Wunderground v.1.15,2013-10-14 07:25:00,
2013-10-14 03:35:00,44.8,42.0,30.42,NNE,18,4.0,4.0,90,0.00,,,0.00,Wunderground v.1.15,2013-10-14 07:35:00,
2013-10-14 03:40:00,44.8,42.0,30.42,NNW,335,3.0,3.0,90,0.00,,,0.00,Wunderground v.1.15,2013-10-14 07:40:00,
2013-10-14 03:45:00,44.5,41.7,30.42,NNE,33,2.0,3.0,90,0.00,,,0.00,Wunderground v.1.15,2013-10-14 07:45:00,
2013-10-14 03:50:00,44.3,41.6,30.42,NNW,343,2.0,3.0,90,0.00,,,0.00,Wunderground v.1.15,2013-10-14 07:50:00,
2013-10-14 03:55:00,44.1,41.4,30.42,North,9,2.0,3.0,90,0.00,,,0.00,Wunderground v.1.15,2013-10-14 07:55:00,
2013-10-14 04:00:00,44.1,41.6,30.42,NNE,12,3.0,3.0,91,0.00,,,0.00,Wunderground v.1.15,2013-10-14 08:00:00,
2013-10-14 04:10:00,44.0,41.5,30.42,North,357,3.0,3.0,91,0.00,,,0.00,Wunderground v.1.15,2013-10-14 08:10:00,
2013-10-14 04:15:00,43.9,41.4,30.42,North,4,4.0,5.0,91,0.00,,,0.00,Wunderground v.1.15,2013-10-14 08:15:00,
2013-10-14 04:20:00,43.9,41.4,30.42,NNW,343,4.0,4.0,91,0.00,,,0.00,Wunderground v.1.15,2013-10-14 08:20:00,
2013-10-14 04:25:00,43.8,41.3,30.42,NNW,338,4.0,4.0,91,0.00,,,0.00,Wunderground v.1.15,2013-10-14 08:25:00,
2013-10-14 04:30:00,43.7,41.5,30.42,North,11,3.0,3.0,92,0.00,,,0.00,Wunderground v.1.15,2013-10-14 08:30:00,
2013-10-14 04:35:00,43.7,41.5,30.42,NNE,22,3.0,3.0,92,0.00,,,0.00,Wunderground v.1.15,2013-10-14 08:35:00,
2013-10-14 04:40:00,43.6,41.4,30.42,NE,44,2.0,3.0,92,0.00,,,0.00,Wunderground v.1.15,2013-10-14 08:40:00,
2013-10-14 04:45:00,43.7,41.5,30.42,NNE,18,2.0,3.0,92,0.00,,,0.00,Wunderground v.1.15,2013-10-14 08:45:00,
2013-10-14 04:50:00,43.6,41.4,30.42,North,11,2.0,2.0,92,0.00,,,0.00,Wunderground v.1.15,2013-10-14 08:50:00,
2013-10-14 04:55:00,43.5,41.3,30.43,NE,36,2.0,2.0,92,0.00,,,0.00,Wunderground v.1.15,2013-10-14 08:55:00,
2013-10-14 05:00:00,43.6,41.4,30.43,North,3,3.0,3.0,92,0.00,,,0.00,Wunderground v.1.15,2013-10-14 09:00:00,
2013-10-14 05:10:00,43.6,41.4,30.43,NNE,13,2.0,4.0,92,0.00,,,0.00,Wunderground v.1.15,2013-10-14 09:10:00,
2013-10-14 05:15:00,43.5,41.3,30.43,NW,311,2.0,4.0,92,0.00,,,0.00,Wunderground v.1.15,2013-10-14 09:15:00,
2013-10-14 05:20:00,43.2,41.0,30.43,North,1,1.0,2.0,92,0.00,,,0.00,Wunderground v.1.15,2013-10-14 09:20:00,
2013-10-14 05:25:00,43.2,41.0,30.43,NNE,25,1.0,3.0,92,0.00,,,0.00,Wunderground v.1.15,2013-10-14 09:25:00,
2013-10-14 05:30:00,43.0,40.8,30.44,NNW,337,2.0,2.0,92,0.00,,,0.00,Wunderground v.1.15,2013-10-14 09:30:00,
2013-10-14 05:40:00,42.7,40.8,30.44,North,352,1.0,3.0,93,0.00,,,0.00,Wunderground v.1.15,2013-10-14 09:40:00,
2013-10-14 05:45:00,42.6,40.7,30.44,NNE,18,2.0,4.0,93,0.00,,,0.00,Wunderground v.1.15,2013-10-14 09:45:00,
2013-10-14 05:50:00,42.5,40.6,30.44,North,359,2.0,2.0,93,0.00,,,0.00,Wunderground v.1.15,2013-10-14 09:50:00,
2013-10-14 05:55:00,42.5,40.6,30.44,NNW,343,3.0,3.0,93,0.00,,,0.00,Wunderground v.1.15,2013-10-14 09:55:00,
2013-10-14 06:00:00,42.5,40.6,30.44,North,354,3.0,3.0,93,0.00,,,0.00,Wunderground v.1.15,2013-10-14 10:00:00,
2013-10-14 06:10:00,42.4,40.5,30.44,NNE,18,2.0,4.0,93,0.00,,,0.00,Wunderground v.1.15,2013-10-14 10:10:00,
2013-10-14 06:15:00,42.4,40.5,30.44,North,11,2.0,4.0,93,0.00,,,0.00,Wunderground v.1.15,2013-10-14 10:15:00,
2013-10-14 06:20:00,42.3,40.4,30.45,NE,34,2.0,3.0,93,0.00,,,0.00,Wunderground v.1.15,2013-10-14 10:20:00,
2013-10-14 06:25:00,42.3,40.4,30.44,NNE,32,2.0,3.0,93,0.00,,,0.00,Wunderground v.1.15,2013-10-14 10:25:00,
2013-10-14 06:30:00,42.4,40.5,30.44,NNE,33,2.0,2.0,93,0.00,,,0.00,Wunderground v.1.15,2013-10-14 10:30:00,
2013-10-14 06:35:00,42.5,40.9,30.44,NNE,18,2.0,2.0,94,0.00,,,0.00,Wunderground v.1.15,2013-10-14 10:35:00,
2013-10-14 06:45:00,42.8,40.9,30.44,NE,40,2.0,6.0,93,0.00,,,0.00,Wunderground v.1.15,2013-10-14 10:45:00,
2013-10-14 06:50:00,42.9,41.0,30.44,NE,49,2.0,2.0,93,0.00,,,0.00,Wunderground v.1.15,2013-10-14 10:50:00,
2013-10-14 06:55:00,42.9,41.0,30.44,NE,51,2.0,3.0,93,0.00,,,0.00,Wunderground v.1.15,2013-10-14 10:55:00,
2013-10-14 07:00:00,43.0,41.1,30.44,NE,50,2.0,2.0,93,0.00,,,0.00,Wunderground v.1.15,2013-10-14 11:00:00,
2013-10-14 07:10:00,42.9,41.0,30.44,NE,41,2.0,2.0,93,0.00,,,0.00,Wunderground v.1.15,2013-10-14 11:10:00,
2013-10-14 07:20:00,42.5,40.9,30.44,NE,34,2.0,2.0,94,0.00,,,0.00,Wunderground v.1.15,2013-10-14 11:20:00,
2013-10-14 07:25:00,42.3,40.4,30.44,NNE,32,1.0,2.0,93,0.00,,,0.00,Wunderground v.1.15,2013-10-14 11:25:00,
2013-10-14 07:30:00,42.0,40.1,30.44,North,356,0.0,0.0,93,0.00,,,0.00,Wunderground v.1.15,2013-10-14 11:30:00,
2013-10-14 07:35:00,41.6,40.0,30.44,NNE,33,0.0,1.0,94,0.00,,,0.00,Wunderground v.1.15,2013-10-14 11:35:00,
2013-10-14 07:40:00,41.4,39.8,30.44,NE,36,0.0,1.0,94,0.00,,,0.00,Wunderground v.1.15,2013-10-14 11:40:00,
2013-10-14 07:45:00,41.4,40.1,30.44,NE,50,1.0,3.0,95,0.00,,,0.00,Wunderground v.1.15,2013-10-14 11:45:00,
2013-10-14 07:50:00,41.6,40.3,30.44,NE,39,2.0,2.0,95,0.00,,,0.00,Wunderground v.1.15,2013-10-14 11:50:00,
2013-10-14 07:55:00,41.9,40.6,30.44,NE,38,2.0,5.0,95,0.00,,,0.00,Wunderground v.1.15,2013-10-14 11:55:00,
2013-10-14 08:00:00,42.2,40.9,30.44,NNE,33,2.0,4.0,95,0.00,,,0.00,Wunderground v.1.15,2013-10-14 12:00:00,
2013-10-14 08:10:00,43.1,41.8,30.44,NE,43,3.0,3.0,95,0.00,,,0.00,Wunderground v.1.15,2013-10-14 12:10:00,
2013-10-14 08:20:00,43.5,41.6,30.45,ENE,71,2.0,2.0,93,0.00,,,0.00,Wunderground v.1.15,2013-10-14 12:20:00,
2013-10-14 08:25:00,43.6,41.7,30.44,East,83,2.0,3.0,93,0.00,,,0.00,Wunderground v.1.15,2013-10-14 12:25:00,
2013-10-14 08:30:00,43.7,41.8,30.45,NE,41,2.0,2.0,93,0.00,,,0.00,Wunderground v.1.15,2013-10-14 12:30:00,
2013-10-14 08:35:00,44.0,42.1,30.45,NNE,30,2.0,2.0,93,0.00,,,0.00,Wunderground v.1.15,2013-10-14 12:35:00,
2013-10-14 08:40:00,44.2,42.0,30.45,NE,43,2.0,4.0,92,0.00,,,0.00,Wunderground v.1.15,2013-10-14 12:40:00,
2013-10-14 08:45:00,44.4,42.2,30.45,ENE,65,3.0,7.0,92,0.00,,,0.01,Wunderground v.1.15,2013-10-14 12:45:00,
2013-10-14 08:55:00,44.9,42.7,30.45,NE,44,3.0,4.0,92,0.00,,,0.01,Wunderground v.1.15,2013-10-14 12:55:00,
2013-10-14 09:00:00,45.2,42.7,30.45,East,98,2.0,4.0,91,0.00,,,0.01,Wunderground v.1.15,2013-10-14 13:00:00,
2013-10-14 09:10:00,45.5,43.0,30.45,ENE,77,3.0,3.0,91,0.00,,,0.01,Wunderground v.1.15,2013-10-14 13:10:00,
2013-10-14 09:15:00,45.6,43.1,30.45,ENE,75,3.0,4.0,91,0.00,,,0.01,Wunderground v.1.15,2013-10-14 13:15:00,
2013-10-14 09:25:00,45.9,43.4,30.45,ENE,71,4.0,6.0,91,0.00,,,0.01,Wunderground v.1.15,2013-10-14 13:25:00,
2013-10-14 09:30:00,46.0,43.2,30.45,East,101,4.0,5.0,90,0.00,,,0.01,Wunderground v.1.15,2013-10-14 13:30:00,
2013-10-14 09:35:00,46.3,43.5,30.45,ENE,78,5.0,5.0,90,0.00,,,0.01,Wunderground v.1.15,2013-10-14 13:35:00,
2013-10-14 09:40:00,46.6,43.8,30.45,ENE,60,4.0,4.0,90,0.00,,,0.01,Wunderground v.1.15,2013-10-14 13:40:00,
2013-10-14 09:45:00,46.9,44.1,30.45,ENE,58,4.0,4.0,90,0.00,,,0.01,Wunderground v.1.15,2013-10-14 13:45:00,
2013-10-14 09:50:00,47.4,44.3,30.45,East,94,4.0,4.0,89,0.00,,,0.01,Wunderground v.1.15,2013-10-14 13:50:00,
2013-10-14 10:05:00,48.7,45.3,30.45,ENE,70,4.0,5.0,88,0.00,,,0.01,Wunderground v.1.15,2013-10-14 14:05:00,
2013-10-14 10:10:00,49.0,45.0,30.45,East,92,4.0,10.0,86,0.00,,,0.01,Wunderground v.1.15,2013-10-14 14:10:00,
2013-10-14 10:15:00,49.1,45.1,30.45,SE,124,5.0,10.0,86,0.00,,,0.01,Wunderground v.1.15,2013-10-14 14:15:00,
2013-10-14 10:20:00,49.4,44.5,30.45,ESE,107,6.0,6.0,83,0.00,,,0.01,Wunderground v.1.15,2013-10-14 14:20:00,
2013-10-14 10:30:00,50.0,44.7,30.45,ESE,113,6.0,6.0,82,0.00,,,0.01,Wunderground v.1.15,2013-10-14 14:30:00,
2013-10-14 10:35:00,50.6,45.3,30.45,East,86,6.0,6.0,82,0.00,,,0.01,Wunderground v.1.15,2013-10-14 14:35:00,
2013-10-14 10:40:00,51.0,45.4,30.44,ESE,104,6.0,6.0,81,0.00,,,0.01,Wunderground v.1.15,2013-10-14 14:40:00,
2013-10-14 10:45:00,51.3,45.3,30.44,ENE,77,7.0,7.0,80,0.00,,,0.01,Wunderground v.1.15,2013-10-14 14:45:00,
2013-10-14 10:50:00,51.7,45.1,30.43,ESE,108,7.0,7.0,78,0.00,,,0.01,Wunderground v.1.15,2013-10-14 14:50:00,
2013-10-14 10:55:00,51.8,44.8,30.43,East,96,7.0,8.0,77,0.00,,,0.01,Wunderground v.1.15,2013-10-14 14:55:00,
2013-10-14 11:00:00,52.2,44.9,30.43,ENE,70,8.0,11.0,76,0.00,,,0.01,Wunderground v.1.15,2013-10-14 15:00:00,
2013-10-14 11:10:00,52.6,44.5,30.42,ENE,65,8.0,8.0,74,0.00,,,0.01,Wunderground v.1.15,2013-10-14 15:10:00,
2013-10-14 11:15:00,53.0,45.3,30.42,ESE,117,7.0,8.0,75,0.00,,,0.01,Wunderground v.1.15,2013-10-14 15:15:00,
2013-10-14 11:20:00,54.0,45.2,30.42,ENE,70,7.0,10.0,72,0.00,,,0.01,Wunderground v.1.15,2013-10-14 15:20:00,
2013-10-14 11:25:00,54.5,45.7,30.42,SE,125,7.0,10.0,72,0.00,,,0.01,Wunderground v.1.15,2013-10-14 15:25:00,
2013-10-14 11:35:00,54.7,44.3,30.42,East,79,8.0,9.0,68,0.00,,,0.01,Wunderground v.1.15,2013-10-14 15:35:00,
2013-10-14 11:40:00,55.0,45.0,30.42,ESE,110,7.0,7.0,69,0.00,,,0.01,Wunderground v.1.15,2013-10-14 15:40:00,
2013-10-14 11:45:00,55.9,44.7,30.42,East,94,7.0,7.0,66,0.00,,,0.01,Wunderground v.1.15,2013-10-14 15:45:00,
2013-10-14 11:50:00,55.7,44.5,30.42,ENE,58,8.0,11.0,66,0.00,,,0.01,Wunderground v.1.15,2013-10-14 15:50:00,
2013-10-14 11:55:00,55.6,44.4,30.42,ENE,73,8.0,11.0,66,0.00,,,0.01,Wunderground v.1.15,2013-10-14 15:55:00,
2013-10-14 12:00:00,55.7,44.9,30.41,ENE,60,7.0,7.0,67,0.00,,,0.01,Wunderground v.1.15,2013-10-14 16:00:00,
2013-10-14 12:10:00,56.8,44.7,30.41,ENE,74,7.0,9.0,64,0.00,,,0.01,Wunderground v.1.15,2013-10-14 16:10:00,
2013-10-14 12:15:00,56.5,44.5,30.41,East,87,7.0,9.0,64,0.00,,,0.01,Wunderground v.1.15,2013-10-14 16:15:00,
2013-10-14 12:20:00,56.3,43.4,30.41,East,83,8.0,8.0,62,0.00,,,0.01,Wunderground v.1.15,2013-10-14 16:20:00,
2013-10-14 12:25:00,56.8,43.9,30.41,East,89,7.0,8.0,62,0.00,,,0.01,Wunderground v.1.15,2013-10-14 16:25:00,
2013-10-14 12:30:00,57.1,44.2,30.41,ENE,68,6.0,7.0,62,0.00,,,0.01,Wunderground v.1.15,2013-10-14 16:30:00,
2013-10-14 12:40:00,58.0,44.6,30.40,ENE,70,7.0,7.0,61,0.00,,,0.01,Wunderground v.1.15,2013-10-14 16:40:00,
2013-10-14 12:45:00,57.9,44.1,30.40,ENE,77,6.0,10.0,60,0.00,,,0.01,Wunderground v.1.15,2013-10-14 16:45:00,
2013-10-14 12:50:00,57.8,44.4,30.40,ESE,113,5.0,5.0,61,0.00,,,0.01,Wunderground v.1.15,2013-10-14 16:50:00,
2013-10-14 12:55:00,58.2,43.9,30.40,East,91,5.0,9.0,59,0.00,,,0.01,Wunderground v.1.15,2013-10-14 16:55:00,
2013-10-14 13:00:00,58.2,44.4,30.40,ENE,67,5.0,5.0,60,0.00,,,0.01,Wunderground v.1.15,2013-10-14 17:00:00,
2013-10-14 13:10:00,59.0,43.3,30.40,ENE,77,5.0,6.0,56,0.00,,,0.01,Wunderground v.1.15,2013-10-14 17:10:00,
2013-10-14 13:15:00,58.8,43.6,30.39,SSE,159,5.0,6.0,57,0.00,,,0.01,Wunderground v.1.15,2013-10-14 17:15:00,
2013-10-14 13:20:00,59.3,44.1,30.39,ENE,76,4.0,6.0,57,0.00,,,0.01,Wunderground v.1.15,2013-10-14 17:20:00,
2013-10-14 13:25:00,58.8,44.0,30.39,East,99,4.0,6.0,58,0.00,,,0.01,Wunderground v.1.15,2013-10-14 17:25:00,
2013-10-14 13:35:00,59.8,43.6,30.39,ESE,113,3.0,4.0,55,0.00,,,0.01,Wunderground v.1.15,2013-10-14 17:35:00,
2013-10-14 13:40:00,59.3,43.6,30.39,ENE,74,4.0,4.0,56,0.00,,,0.01,Wunderground v.1.15,2013-10-14 17:40:00,
2013-10-14 13:45:00,59.1,43.9,30.39,East,79,3.0,8.0,57,0.00,,,0.01,Wunderground v.1.15,2013-10-14 17:45:00,
2013-10-14 13:50:00,59.2,44.4,30.38,ENE,58,2.0,4.0,58,0.00,,,0.01,Wunderground v.1.15,2013-10-14 17:50:00,
2013-10-14 13:55:00,59.6,45.2,30.38,SE,143,3.0,4.0,59,0.00,,,0.01,Wunderground v.1.15,2013-10-14 17:55:00,
2013-10-14 14:00:00,59.8,43.6,30.38,NNE,27,4.0,4.0,55,0.00,,,0.01,Wunderground v.1.15,2013-10-14 18:00:00,
2013-10-14 14:10:00,59.9,44.2,30.37,East,101,4.0,7.0,56,0.00,,,0.01,Wunderground v.1.15,2013-10-14 18:10:00,
2013-10-14 14:15:00,59.8,44.5,30.37,SW,215,4.0,7.0,57,0.00,,,0.01,Wunderground v.1.15,2013-10-14 18:15:00,
2013-10-14 14:20:00,60.3,45.5,30.37,WSW,252,3.0,3.0,58,0.00,,,0.01,Wunderground v.1.15,2013-10-14 18:20:00,
2013-10-14 14:25:00,60.3,44.1,30.37,East,82,3.0,3.0,55,0.00,,,0.01,Wunderground v.1.15,2013-10-14 18:25:00,
2013-10-14 14:30:00,60.6,44.8,30.36,NE,46,2.0,3.0,56,0.00,,,0.01,Wunderground v.1.15,2013-10-14 18:30:00,
2013-10-14 14:35:00,61.1,45.7,30.36,East,101,1.0,3.0,57,0.00,,,0.01,Wunderground v.1.15,2013-10-14 18:35:00,
2013-10-14 14:40:00,61.5,45.2,30.36,East,89,3.0,7.0,55,0.00,,,0.01,Wunderground v.1.15,2013-10-14 18:40:00,
2013-10-14 14:50:00,61.2,44.4,30.36,ENE,60,4.0,5.0,54,0.00,,,0.01,Wunderground v.1.15,2013-10-14 18:50:00,
2013-10-14 14:55:00,60.6,43.9,30.36,North,354,4.0,5.0,54,0.00,,,0.01,Wunderground v.1.15,2013-10-14 18:55:00,
2013-10-14 15:00:00,60.9,44.6,30.36,SE,128,3.0,3.0,55,0.00,,,0.01,Wunderground v.1.15,2013-10-14 19:00:00,
2013-10-14 15:10:00,61.8,44.0,30.35,SSE,155,3.0,3.0,52,0.00,,,0.01,Wunderground v.1.15,2013-10-14 19:10:00,
2013-10-14 15:20:00,62.3,44.4,30.34,ESE,113,2.0,3.0,52,0.00,,,0.01,Wunderground v.1.15,2013-10-14 19:20:00,
2013-10-14 15:25:00,62.0,44.7,30.34,SW,224,2.0,3.0,53,0.00,,,0.01,Wunderground v.1.15,2013-10-14 19:25:00,
2013-10-14 15:30:00,62.3,44.9,30.34,SW,228,2.0,4.0,53,0.00,,,0.01,Wunderground v.1.15,2013-10-14 19:30:00,
2013-10-14 15:35:00,62.7,44.3,30.34,ENE,75,2.0,6.0,51,0.00,,,0.01,Wunderground v.1.15,2013-10-14 19:35:00,
2013-10-14 15:40:00,61.9,44.1,30.34,SE,135,3.0,3.0,52,0.00,,,0.01,Wunderground v.1.15,2013-10-14 19:40:00,
2013-10-14 15:45:00,62.3,44.9,30.33,NNE,23,2.0,3.0,53,0.00,,,0.01,Wunderground v.1.15,2013-10-14 19:45:00,
2013-10-14 15:55:00,62.2,44.3,30.33,ENE,60,2.0,2.0,52,0.00,,,0.01,Wunderground v.1.15,2013-10-14 19:55:00,
2013-10-14 16:00:00,62.4,44.5,30.33,ENE,77,2.0,5.0,52,0.00,,,0.01,Wunderground v.1.15,2013-10-14 20:00:00,
2013-10-14 16:10:00,62.2,45.3,30.33,NE,41,4.0,4.0,54,0.00,,,0.01,Wunderground v.1.15,2013-10-14 20:10:00,
2013-10-14 16:15:00,62.6,44.7,30.33,East,80,4.0,6.0,52,0.00,,,0.01,Wunderground v.1.15,2013-10-14 20:15:00,
2013-10-14 16:25:00,62.4,44.0,30.32,ENE,74,3.0,4.0,51,0.00,,,0.01,Wunderground v.1.15,2013-10-14 20:25:00,
2013-10-14 16:30:00,62.7,44.8,30.32,South,173,2.0,4.0,52,0.00,,,0.01,Wunderground v.1.15,2013-10-14 20:30:00,
2013-10-14 16:35:00,62.9,45.0,30.32,NE,50,2.0,4.0,52,0.00,,,0.01,Wunderground v.1.15,2013-10-14 20:35:00,
2013-10-14 16:40:00,63.1,44.7,30.32,ESE,118,3.0,3.0,51,0.00,,,0.01,Wunderground v.1.15,2013-10-14 20:40:00,
2013-10-14 16:45:00,63.3,44.9,30.32,ENE,74,3.0,3.0,51,0.00,,,0.01,Wunderground v.1.15,2013-10-14 20:45:00,
2013-10-14 16:50:00,63.3,44.9,30.32,ENE,70,2.0,4.0,51,0.00,,,0.01,Wunderground v.1.15,2013-10-14 20:50:00,
2013-10-14 16:55:00,62.9,44.0,30.32,East,88,3.0,4.0,50,0.00,,,0.01,Wunderground v.1.15,2013-10-14 20:55:00,
2013-10-14 17:00:00,62.9,44.5,30.31,ESE,117,3.0,3.0,51,0.00,,,0.01,Wunderground v.1.15,2013-10-14 21:00:00,
2013-10-14 17:10:00,62.4,44.0,30.31,NE,53,4.0,4.0,51,0.00,,,0.01,Wunderground v.1.15,2013-10-14 21:10:00,
2013-10-14 17:15:00,62.3,43.9,30.30,NE,55,5.0,5.0,51,0.00,,,0.01,Wunderground v.1.15,2013-10-14 21:15:00,
2013-10-14 17:20:00,62.2,44.3,30.30,ENE,67,4.0,4.0,52,0.00,,,0.01,Wunderground v.1.15,2013-10-14 21:20:00,
2013-10-14 17:30:00,62.4,44.0,30.30,East,84,3.0,3.0,51,0.00,,,0.01,Wunderground v.1.15,2013-10-14 21:30:00,
2013-10-14 17:35:00,62.4,44.0,30.30,SE,134,3.0,3.0,51,0.00,,,0.01,Wunderground v.1.15,2013-10-14 21:35:00,
2013-10-14 17:40:00,62.3,43.9,30.30,ENE,63,4.0,4.0,51,0.00,,,0.01,Wunderground v.1.15,2013-10-14 21:40:00,
2013-10-14 17:45:00,62.4,44.0,30.30,NE,52,3.0,4.0,51,0.00,,,0.01,Wunderground v.1.15,2013-10-14 21:45:00,
2013-10-14 17:50:00,62.1,43.2,30.30,East,89,4.0,4.0,50,0.00,,,0.01,Wunderground v.1.15,2013-10-14 21:50:00,
2013-10-14 17:55:00,62.0,44.2,30.30,ENE,65,4.0,4.0,52,0.00,,,0.01,Wunderground v.1.15,2013-10-14 21:55:00,
2013-10-14 18:00:00,62.0,43.7,30.30,East,89,3.0,3.0,51,0.00,,,0.01,Wunderground v.1.15,2013-10-14 22:00:00,
2013-10-14 18:10:00,61.6,43.8,30.30,East,79,4.0,4.0,52,0.00,,,0.01,Wunderground v.1.15,2013-10-14 22:10:00,
2013-10-14 18:15:00,61.4,43.6,30.30,ENE,58,3.0,4.0,52,0.00,,,0.01,Wunderground v.1.15,2013-10-14 22:15:00,
2013-10-14 18:20:00,61.4,44.1,30.30,NE,52,2.0,3.0,53,0.00,,,0.01,Wunderground v.1.15,2013-10-14 22:20:00,
2013-10-14 18:25:00,61.3,44.0,30.30,NE,56,2.0,3.0,53,0.00,,,0.01,Wunderground v.1.15,2013-10-14 22:25:00,
2013-10-14 18:35:00,60.6,43.9,30.29,NE,52,3.0,3.0,54,0.00,,,0.01,Wunderground v.1.15,2013-10-14 22:35:00,
2013-10-14 18:40:00,60.1,43.4,30.29,NE,50,2.0,2.0,54,0.00,,,0.01,Wunderground v.1.15,2013-10-14 22:40:00,
2013-10-14 18:45:00,59.6,43.4,30.29,East,84,2.0,2.0,55,0.00,,,0.01,Wunderground v.1.15,2013-10-14 22:45:00,
2013-10-14 18:50:00,59.1,43.4,30.29,ENE,63,1.0,1.0,56,0.00,,,0.01,Wunderground v.1.15,2013-10-14 22:50:00,
2013-10-14 18:55:00,58.6,43.4,30.29,ENE,69,1.0,1.0,57,0.00,,,0.01,Wunderground v.1.15,2013-10-14 22:55:00,
2013-10-14 19:00:00,58.1,43.4,30.29,NE,43,1.0,1.0,58,0.00,,,0.01,Wunderground v.1.15,2013-10-14 23:00:00,
2013-10-14 19:10:00,57.3,43.1,30.28,ENE,61,1.0,2.0,59,0.00,,,0.01,Wunderground v.1.15,2013-10-14 23:10:00,
2013-10-14 19:15:00,56.9,43.2,30.28,NE,49,1.0,2.0,60,0.00,,,0.01,Wunderground v.1.15,2013-10-14 23:15:00,
2013-10-14 19:20:00,56.7,43.0,30.28,NE,50,2.0,2.0,60,0.00,,,0.01,Wunderground v.1.15,2013-10-14 23:20:00,
2013-10-14 19:25:00,56.5,43.2,30.28,ESE,116,1.0,2.0,61,0.00,,,0.01,Wunderground v.1.15,2013-10-14 23:25:00,
2013-10-14 19:30:00,56.0,43.2,30.28,ENE,63,1.0,1.0,62,0.00,,,0.01,Wunderground v.1.15,2013-10-14 23:30:00,
2013-10-14 19:40:00,56.0,43.2,30.28,ENE,68,2.0,2.0,62,0.00,,,0.01,Wunderground v.1.15,2013-10-14 23:40:00,
2013-10-14 19:45:00,55.9,43.1,30.28,NE,53,1.0,2.0,62,0.00,,,0.01,Wunderground v.1.15,2013-10-14 23:45:00,
2013-10-14 19:50:00,55.6,43.2,30.28,NE,55,1.0,1.0,63,0.00,,,0.01,Wunderground v.1.15,2013-10-14 23:50:00,
2013-10-14 19:55:00,55.3,42.9,30.28,ENE,76,0.0,1.0,63,0.00,,,0.01,Wunderground v.1.15,2013-10-14 23:55:00,
2013-10-14 20:00:00,54.9,42.9,30.28,ESE,103,0.0,1.0,64,0.00,,,0.01,Wunderground v.1.15,2013-10-15 00:00:00,
2013-10-14 20:05:00,54.8,42.9,30.28,ENE,68,0.0,1.0,64,0.00,,,0.01,Wunderground v.1.15,2013-10-15 00:05:00,
2013-10-14 20:10:00,54.5,43.0,30.28,NE,52,0.0,0.0,65,0.00,,,0.01,Wunderground v.1.15,2013-10-15 00:10:00,
2013-10-14 20:15:00,54.3,42.8,30.28,NE,53,0.0,1.0,65,0.00,,,0.01,Wunderground v.1.15,2013-10-15 00:15:00,
2013-10-14 20:20:00,54.3,43.2,30.28,NE,50,1.0,1.0,66,0.00,,,0.01,Wunderground v.1.15,2013-10-15 00:20:00,
2013-10-14 20:30:00,54.2,43.1,30.28,ESE,107,1.0,1.0,66,0.00,,,0.01,Wunderground v.1.15,2013-10-15 00:30:00,
2013-10-14 20:35:00,54.0,43.3,30.28,East,96,1.0,1.0,67,0.00,,,0.01,Wunderground v.1.15,2013-10-15 00:35:00,
2013-10-14 20:40:00,53.6,42.9,30.28,East,100,0.0,0.0,67,0.00,,,0.01,Wunderground v.1.15,2013-10-15 00:40:00,
2013-10-14 20:45:00,53.3,43.0,30.28,East,79,0.0,1.0,68,0.00,,,0.01,Wunderground v.1.15,2013-10-15 00:45:00,
2013-10-14 20:50:00,53.2,42.9,30.28,ENE,57,0.0,0.0,68,0.00,,,0.01,Wunderground v.1.15,2013-10-15 00:50:00,
2013-10-14 20:55:00,53.1,42.8,30.28,ENE,67,0.0,0.0,68,0.00,,,0.01,Wunderground v.1.15,2013-10-15 00:55:00,
2013-10-14 21:00:00,52.9,43.0,30.28,East,83,0.0,0.0,69,0.00,,,0.01,Wunderground v.1.15,2013-10-15 01:00:00,
2013-10-14 21:15:00,52.1,42.6,30.28,ENE,75,0.0,1.0,70,0.00,,,0.01,Wunderground v.1.15,2013-10-15 01:15:00,
2013-10-14 21:20:00,52.0,42.9,30.28,East,91,0.0,1.0,71,0.00,,,0.01,Wunderground v.1.15,2013-10-15 01:20:00,
2013-10-14 21:25:00,52.0,42.9,30.29,East,96,1.0,1.0,71,0.00,,,0.01,Wunderground v.1.15,2013-10-15 01:25:00,
2013-10-14 21:30:00,51.6,42.5,30.29,East,98,0.0,0.0,71,0.00,,,0.01,Wunderground v.1.15,2013-10-15 01:30:00,
2013-10-14 21:35:00,51.2,42.5,30.29,ENE,73,0.0,0.0,72,0.00,,,0.01,Wunderground v.1.15,2013-10-15 01:35:00,
2013-10-14 21:40:00,50.2,42.2,30.29,ENE,73,0.0,0.0,74,0.00,,,0.01,Wunderground v.1.15,2013-10-15 01:40:00,
2013-10-14 21:45:00,49.3,42.1,30.29,ENE,74,0.0,0.0,76,0.00,,,0.01,Wunderground v.1.15,2013-10-15 01:45:00,
2013-10-14 21:50:00,48.8,41.9,30.29,ENE,63,0.0,0.0,77,0.00,,,0.01,Wunderground v.1.15,2013-10-15 01:50:00,
2013-10-14 21:55:00,47.9,41.7,30.29,ENE,64,0.0,0.0,79,0.00,,,0.01,Wunderground v.1.15,2013-10-15 01:55:00,
2013-10-14 22:00:00,48.2,42.3,30.29,ENE,58,0.0,1.0,80,0.00,,,0.01,Wunderground v.1.15,2013-10-15 02:00:00,
2013-10-14 22:10:00,48.4,41.9,30.29,East,89,0.0,0.0,78,0.00,,,0.01,Wunderground v.1.15,2013-10-15 02:10:00,
2013-10-14 22:20:00,49.1,42.9,30.30,East,96,0.0,0.0,79,0.00,,,0.01,Wunderground v.1.15,2013-10-15 02:20:00,
2013-10-14 22:25:00,49.2,42.6,30.29,East,94,0.0,0.0,78,0.00,,,0.01,Wunderground v.1.15,2013-10-15 02:25:00,
2013-10-14 22:30:00,48.9,42.7,30.29,East,96,0.0,1.0,79,0.00,,,0.01,Wunderground v.1.15,2013-10-15 02:30:00,
2013-10-14 22:35:00,48.8,42.9,30.29,ENE,78,0.0,1.0,80,0.00,,,0.01,Wunderground v.1.15,2013-10-15 02:35:00,
2013-10-14 22:40:00,48.9,43.0,30.29,East,87,1.0,1.0,80,0.00,,,0.01,Wunderground v.1.15,2013-10-15 02:40:00,
2013-10-14 22:45:00,49.6,43.4,30.28,East,96,2.0,2.0,79,0.00,,,0.01,Wunderground v.1.15,2013-10-15 02:45:00,
2013-10-14 22:55:00,49.6,43.4,30.28,East,82,2.0,2.0,79,0.00,,,0.01,Wunderground v.1.15,2013-10-15 02:55:00,
2013-10-14 23:00:00,49.5,43.3,30.28,East,96,2.0,2.0,79,0.00,,,0.01,Wunderground v.1.15,2013-10-15 03:00:00,
2013-10-14 23:10:00,49.7,43.5,30.28,East,80,2.0,2.0,79,0.00,,,0.01,Wunderground v.1.15,2013-10-15 03:10:00,
2013-10-14 23:15:00,49.5,43.3,30.27,ENE,75,2.0,2.0,79,0.00,,,0.01,Wunderground v.1.15,2013-10-15 03:15:00,
2013-10-14 23:25:00,49.5,43.6,30.27,ESE,110,1.0,1.0,80,0.00,,,0.01,Wunderground v.1.15,2013-10-15 03:25:00,
2013-10-14 23:30:00,49.3,43.4,30.27,ENE,75,1.0,5.0,80,0.00,,,0.01,Wunderground v.1.15,2013-10-15 03:30:00,
2013-10-14 23:35:00,49.4,43.5,30.27,East,79,2.0,5.0,80,0.00,,,0.01,Wunderground v.1.15,2013-10-15 03:35:00,
2013-10-14 23:40:00,49.2,43.3,30.26,East,90,2.0,2.0,80,0.00,,,0.01,Wunderground v.1.15,2013-10-15 03:40:00,
2013-10-14 23:45:00,49.0,43.4,30.26,ESE,107,2.0,3.0,81,0.00,,,0.01,Wunderground v.1.15,2013-10-15 03:45:00,
2013-10-14 23:50:00,48.7,43.1,30.26,ESE,106,3.0,3.0,81,0.00,,,0.01,Wunderground v.1.15,2013-10-15 03:50:00,
2013-10-14 23:55:00,47.9,42.7,30.26,SE,137,2.0,3.0,82,0.00,,,0.01,Wunderground v.1.15,2013-10-15 03:55:00,